Terminal Aerodrome Forecast
Issued by NWS Cleveland, OH

Home | Current Version | Previous Version | Graphics & Text | Print | Product List | Glossary On
Versions: 1 2 3 4 5 6 7 8 9 10 11 12 13 14 15 16 17 18 19 20 21
000
FTUS41 KCLE 231400 AAB
TAFERI
TAF AMD
KERI 231446Z 2315/2412 29011KT 6SM BR BKN008 OVC015
      TEMPO 2315/2317 5SM -RA BR BKN005
     FM231700 32012KT P6SM OVC015
     FM232300 33012KT P6SM BKN030
     FM240300 35007KT P6SM SCT035=

USA.gov is the U.S. government's official web portal to all federal, state and local government web resources and services.